sensor_id;sensor_type;location;lat;lon;timestamp;pressure;altitude;pressure_sealevel;temperature;humidity
31761;BME280;18335;51.486;7.562;2023-08-24T00:00:29;100506.06;;;18.77;100.00
31761;BME280;18335;51.486;7.562;2023-08-24T00:02:57;100490.09;;;18.53;100.00
31761;BME280;18335;51.486;7.562;2023-08-24T00:05:24;100493.66;;;18.34;100.00
31761;BME280;18335;51.486;7.562;2023-08-24T00:07:51;100485.56;;;18.32;100.00
31761;BME280;18335;51.486;7.562;2023-08-24T00:10:18;100490.47;;;18.30;100.00
31761;BME280;18335;51.486;7.562;2023-08-24T00:12:45;100490.44;;;18.17;100.00
31761;BME280;18335;51.486;7.562;2023-08-24T00:15:11;100485.38;;;18.34;100.00
31761;BME280;18335;51.486;7.562;2023-08-24T00:17:39;100485.34;;;18.20;100.00
31761;BME280;18335;51.486;7.562;2023-08-24T00:20:07;100482.34;;;18.22;100.00
31761;BME280;18335;51.486;7.562;2023-08-24T00:22:37;100485.31;;;18.01;100.00
31761;BME280;18335;51.486;7.562;2023-08-24T00:25:05;100480.63;;;18.08;100.00
31761;BME280;18335;51.486;7.562;2023-08-24T00:27:32;100480.88;;;18.19;100.00
31761;BME280;18335;51.486;7.562;2023-08-24T00:29:59;100477.50;;;18.31;100.00
31761;BME280;18335;51.486;7.562;2023-08-24T00:32:25;100475.81;;;18.36;100.00
31761;BME280;18335;51.486;7.562;2023-08-24T00:34:55;100468.78;;;18.27;100.00
31761;BME280;18335;51.486;7.562;2023-08-24T00:37:22;100474.50;;;18.25;100.00
31761;BME280;18335;51.486;7.562;2023-08-24T00:39:49;100468.13;;;18.32;100.00
31761;BME280;18335;51.486;7.562;2023-08-24T00:42:16;100469.63;;;18.34;100.00
31761;BME280;18335;51.486;7.562;2023-08-24T00:44:43;100471.72;;;18.12;100.00
31761;BME280;18335;51.486;7.562;2023-08-24T00:47:11;100474.69;;;18.11;100.00
31761;BME280;18335;51.486;7.562;2023-08-24T00:49:38;100477.25;;;18.12;100.00
31761;BME280;18335;51.486;7.562;2023-08-24T00:52:06;100469.16;;;18.11;100.00
31761;BME280;18335;51.486;7.562;2023-08-24T00:54:33;100456.84;;;18.13;100.00
31761;BME280;18335;51.486;7.562;2023-08-24T00:57:00;100464.91;;;18.08;100.00
31761;BME280;18335;51.486;7.562;2023-08-24T00:59:27;100465.34;;;18.12;100.00
31761;BME280;18335;51.486;7.562;2023-08-24T01:01:55;100466.22;;;18.12;100.00
31761;BME280;18335;51.486;7.562;2023-08-24T01:04:22;100456.41;;;18.03;100.00
31761;BME280;18335;51.486;7.562;2023-08-24T01:06:49;100459.59;;;18.13;100.00
31761;BME280;18335;51.486;7.562;2023-08-24T01:09:18;100443.47;;;18.10;100.00
31761;BME280;18335;51.486;7.562;2023-08-24T01:11:54;100449.22;;;18.15;100.00
31761;BME280;18335;51.486;7.562;2023-08-24T01:14:32;100447.94;;;18.18;100.00
31761;BME280;18335;51.486;7.562;2023-08-24T01:17:03;100460.19;;;17.96;100.00
31761;BME280;18335;51.486;7.562;2023-08-24T01:19:37;100456.81;;;17.94;100.00
31761;BME280;18335;51.486;7.562;2023-08-24T01:22:08;100453.81;;;17.95;100.00
31761;BME280;18335;51.486;7.562;2023-08-24T01:24:43;100452.78;;;17.96;100.00
31761;BME280;18335;51.486;7.562;2023-08-24T01:27:14;100455.06;;;17.80;100.00
31761;BME280;18335;51.486;7.562;2023-08-24T01:29:41;100455.53;;;17.96;100.00
31761;BME280;18335;51.486;7.562;2023-08-24T01:32:09;100451.50;;;17.86;100.00
31761;BME280;18335;51.486;7.562;2023-08-24T01:34:37;100449.81;;;17.98;100.00
31761;BME280;18335;51.486;7.562;2023-08-24T01:37:05;100456.19;;;17.92;100.00
31761;BME280;18335;51.486;7.562;2023-08-24T01:39:40;100447.44;;;17.82;100.00
31761;BME280;18335;51.486;7.562;2023-08-24T01:42:10;100443.56;;;17.69;100.00
31761;BME280;18335;51.486;7.562;2023-08-24T01:44:42;100428.50;;;17.72;100.00
31761;BME280;18335;51.486;7.562;2023-08-24T01:47:12;100429.56;;;17.71;100.00
31761;BME280;18335;51.486;7.562;2023-08-24T01:49:41;100432.53;;;17.69;100.00
31761;BME280;18335;51.486;7.562;2023-08-24T01:52:09;100443.34;;;17.64;100.00
31761;BME280;18335;51.486;7.562;2023-08-24T01:54:36;100439.50;;;17.59;100.00
31761;BME280;18335;51.486;7.562;2023-08-24T01:57:04;100442.13;;;17.39;100.00
31761;BME280;18335;51.486;7.562;2023-08-24T01:59:32;100429.69;;;17.56;100.00
31761;BME280;18335;51.486;7.562;2023-08-24T02:02:01;100431.63;;;17.56;100.00
31761;BME280;18335;51.486;7.562;2023-08-24T02:04:28;100425.06;;;17.63;100.00
31761;BME280;18335;51.486;7.562;2023-08-24T02:06:55;100415.06;;;17.62;100.00
31761;BME280;18335;51.486;7.562;2023-08-24T02:09:21;100421.25;;;17.24;100.00
31761;BME280;18335;51.486;7.562;2023-08-24T02:11:51;100428.81;;;17.49;100.00
31761;BME280;18335;51.486;7.562;2023-08-24T02:14:18;100425.56;;;17.39;100.00
31761;BME280;18335;51.486;7.562;2023-08-24T02:16:44;100423.13;;;17.57;100.00
31761;BME280;18335;51.486;7.562;2023-08-24T02:19:12;100427.31;;;17.53;100.00
31761;BME280;18335;51.486;7.562;2023-08-24T02:21:39;100411.63;;;17.54;100.00
31761;BME280;18335;51.486;7.562;2023-08-24T02:24:06;100410.72;;;17.40;100.00
31761;BME280;18335;51.486;7.562;2023-08-24T02:26:33;100410.06;;;17.38;100.00
31761;BME280;18335;51.486;7.562;2023-08-24T02:29:00;100406.91;;;17.41;100.00
31761;BME280;18335;51.486;7.562;2023-08-24T02:31:28;100404.78;;;17.37;100.00
31761;BME280;18335;51.486;7.562;2023-08-24T02:33:55;100403.50;;;17.39;100.00
31761;BME280;18335;51.486;7.562;2023-08-24T02:36:23;100412.00;;;17.38;100.00
31761;BME280;18335;51.486;7.562;2023-08-24T02:38:50;100404.78;;;17.37;100.00
31761;BME280;18335;51.486;7.562;2023-08-24T02:41:17;100402.50;;;17.53;100.00
31761;BME280;18335;51.486;7.562;2023-08-24T02:43:44;100411.00;;;17.52;100.00
31761;BME280;18335;51.486;7.562;2023-08-24T02:46:11;100417.69;;;17.36;100.00
31761;BME280;18335;51.486;7.562;2023-08-24T02:48:38;100417.69;;;17.36;100.00
31761;BME280;18335;51.486;7.562;2023-08-24T02:51:05;100423.59;;;17.27;100.00
31761;BME280;18335;51.486;7.562;2023-08-24T02:53:34;100418.22;;;17.12;100.00
31761;BME280;18335;51.486;7.562;2023-08-24T02:56:00;100411.31;;;17.29;100.00
31761;BME280;18335;51.486;7.562;2023-08-24T02:58:27;100407.25;;;17.25;100.00
31761;BME280;18335;51.486;7.562;2023-08-24T03:00:55;100397.31;;;17.31;100.00
31761;BME280;18335;51.486;7.562;2023-08-24T03:03:23;100389.31;;;17.49;100.00
31761;BME280;18335;51.486;7.562;2023-08-24T03:05:58;100405.41;;;17.39;100.00
31761;BME280;18335;51.486;7.562;2023-08-24T03:08:26;100399.09;;;17.51;100.00
31761;BME280;18335;51.486;7.562;2023-08-24T03:10:55;100403.50;;;17.39;100.00
31761;BME280;18335;51.486;7.562;2023-08-24T03:13:22;100411.56;;;17.34;100.00
31761;BME280;18335;51.486;7.562;2023-08-24T03:15:50;100408.56;;;17.36;100.00
31761;BME280;18335;51.486;7.562;2023-08-24T03:18:18;100405.63;;;17.37;100.00
31761;BME280;18335;51.486;7.562;2023-08-24T03:20:47;100411.19;;;17.44;100.00
31761;BME280;18335;51.486;7.562;2023-08-24T03:23:15;100412.81;;;17.38;100.00
31761;BME280;18335;51.486;7.562;2023-08-24T03:25:42;100406.22;;;17.33;100.00
31761;BME280;18335;51.486;7.562;2023-08-24T03:28:10;100415.00;;;17.49;100.00
31761;BME280;18335;51.486;7.562;2023-08-24T03:30:38;100412.72;;;17.59;100.00
31761;BME280;18335;51.486;7.562;2023-08-24T03:33:07;100411.28;;;17.63;100.00
31761;BME280;18335;51.486;7.562;2023-08-24T03:35:33;100399.72;;;17.53;100.00
31761;BME280;18335;51.486;7.562;2023-08-24T03:38:00;100400.22;;;17.57;100.00
31761;BME280;18335;51.486;7.562;2023-08-24T03:40:28;100403.19;;;17.55;100.00
31761;BME280;18335;51.486;7.562;2023-08-24T03:42:55;100402.06;;;17.50;100.00
31761;BME280;18335;51.486;7.562;2023-08-24T03:45:23;100399.59;;;17.61;100.00
31761;BME280;18335;51.486;7.562;2023-08-24T03:47:51;100406.44;;;17.79;100.00
31761;BME280;18335;51.486;7.562;2023-08-24T03:50:17;100409.22;;;17.85;100.00
31761;BME280;18335;51.486;7.562;2023-08-24T03:52:44;100396.28;;;17.86;100.00
31761;BME280;18335;51.486;7.562;2023-08-24T03:55:11;100397.31;;;17.85;100.00
31761;BME280;18335;51.486;7.562;2023-08-24T03:57:38;100393.94;;;17.96;100.00
31761;BME280;18335;51.486;7.562;2023-08-24T04:00:06;100396.09;;;18.00;100.00
31761;BME280;18335;51.486;7.562;2023-08-24T04:02:44;100389.09;;;17.98;100.00
31761;BME280;18335;51.486;7.562;2023-08-24T04:05:21;100403.50;;;18.00;100.00
31761;BME280;18335;51.486;7.562;2023-08-24T04:07:48;100406.28;;;18.13;100.00
31761;BME280;18335;51.486;7.562;2023-08-24T04:10:15;100412.22;;;18.10;100.00
31761;BME280;18335;51.486;7.562;2023-08-24T04:12:41;100420.09;;;18.00;100.00
31761;BME280;18335;51.486;7.562;2023-08-24T04:15:09;100418.56;;;17.91;100.00
31761;BME280;18335;51.486;7.562;2023-08-24T04:17:36;100421.78;;;18.07;100.00
31761;BME280;18335;51.486;7.562;2023-08-24T04:20:06;100430.91;;;18.08;100.00
31761;BME280;18335;51.486;7.562;2023-08-24T04:22:33;100431.78;;;18.08;100.00
31761;BME280;18335;51.486;7.562;2023-08-24T04:25:00;100427.53;;;18.06;100.00
31761;BME280;18335;51.486;7.562;2023-08-24T04:27:27;100421.19;;;18.18;100.00
31761;BME280;18335;51.486;7.562;2023-08-24T04:29:53;100411.81;;;18.26;100.00
31761;BME280;18335;51.486;7.562;2023-08-24T04:32:22;100404.38;;;18.20;100.00
31761;BME280;18335;51.486;7.562;2023-08-24T04:34:48;100394.84;;;18.29;100.00
31761;BME280;18335;51.486;7.562;2023-08-24T04:37:17;100397.19;;;18.32;100.00
31761;BME280;18335;51.486;7.562;2023-08-24T04:39:44;100394.41;;;18.32;100.00
31761;BME280;18335;51.486;7.562;2023-08-24T04:42:10;100390.81;;;18.38;100.00
31761;BME280;18335;51.486;7.562;2023-08-24T04:44:37;100393.75;;;18.43;100.00
31761;BME280;18335;51.486;7.562;2023-08-24T04:47:06;100389.31;;;18.36;100.00
31761;BME280;18335;51.486;7.562;2023-08-24T04:49:33;100389.75;;;18.39;100.00
31761;BME280;18335;51.486;7.562;2023-08-24T04:52:00;100395.91;;;18.41;100.00
31761;BME280;18335;51.486;7.562;2023-08-24T04:54:28;100393.97;;;18.29;100.00
31761;BME280;18335;51.486;7.562;2023-08-24T04:56:55;100399.09;;;18.38;100.00
31761;BME280;18335;51.486;7.562;2023-08-24T04:59:22;100391.22;;;18.42;100.00
31761;BME280;18335;51.486;7.562;2023-08-24T05:01:49;100396.97;;;18.47;100.00
31761;BME280;18335;51.486;7.562;2023-08-24T05:04:16;100384.00;;;18.47;100.00
31761;BME280;18335;51.486;7.562;2023-08-24T05:06:42;100393.16;;;18.48;100.00
31761;BME280;18335;51.486;7.562;2023-08-24T05:09:09;100391.84;;;18.37;100.00
31761;BME280;18335;51.486;7.562;2023-08-24T05:11:37;100390.38;;;18.61;100.00
31761;BME280;18335;51.486;7.562;2023-08-24T05:14:04;100384.88;;;18.54;100.00
31761;BME280;18335;51.486;7.562;2023-08-24T05:16:31;100379.38;;;18.54;100.00
31761;BME280;18335;51.486;7.562;2023-08-24T05:18:57;100375.31;;;18.57;100.00
31761;BME280;18335;51.486;7.562;2023-08-24T05:21:24;100366.59;;;18.66;100.00
31761;BME280;18335;51.486;7.562;2023-08-24T05:23:51;100352.34;;;18.56;100.00
31761;BME280;18335;51.486;7.562;2023-08-24T05:26:18;100339.41;;;18.50;100.00
31761;BME280;18335;51.486;7.562;2023-08-24T05:28:49;100330.44;;;18.68;100.00
31761;BME280;18335;51.486;7.562;2023-08-24T05:31:16;100348.06;;;18.47;100.00
31761;BME280;18335;51.486;7.562;2023-08-24T05:33:43;100353.84;;;18.39;100.00
31761;BME280;18335;51.486;7.562;2023-08-24T05:36:10;100351.94;;;18.53;100.00
31761;BME280;18335;51.486;7.562;2023-08-24T05:38:36;100352.34;;;18.37;100.00
31761;BME280;18335;51.486;7.562;2023-08-24T05:41:03;100340.44;;;18.43;100.00
31761;BME280;18335;51.486;7.562;2023-08-24T05:43:30;100330.03;;;18.38;100.00
31761;BME280;18335;51.486;7.562;2023-08-24T05:45:58;100318.13;;;18.57;100.00
31761;BME280;18335;51.486;7.562;2023-08-24T05:48:25;100321.53;;;18.53;100.00
31761;BME280;18335;51.486;7.562;2023-08-24T05:50:52;100307.28;;;18.56;100.00
31761;BME280;18335;51.486;7.562;2023-08-24T05:53:18;100307.28;;;18.62;100.00
31761;BME280;18335;51.486;7.562;2023-08-24T05:55:45;100303.47;;;18.50;100.00
31761;BME280;18335;51.486;7.562;2023-08-24T05:58:12;100289.84;;;18.42;100.00
31761;BME280;18335;51.486;7.562;2023-08-24T06:00:38;100282.19;;;18.44;100.00
31761;BME280;18335;51.486;7.562;2023-08-24T06:03:06;100278.38;;;18.52;100.00
31761;BME280;18335;51.486;7.562;2023-08-24T06:05:33;100276.63;;;18.64;100.00
31761;BME280;18335;51.486;7.562;2023-08-24T06:08:00;100264.09;;;18.74;100.00
31761;BME280;18335;51.486;7.562;2023-08-24T06:10:26;100247.94;;;18.71;100.00
31761;BME280;18335;51.486;7.562;2023-08-24T06:12:53;100245.75;;;18.80;100.00
31761;BME280;18335;51.486;7.562;2023-08-24T06:15:20;100248.72;;;18.85;100.00
31761;BME280;18335;51.486;7.562;2023-08-24T06:17:49;100248.97;;;18.77;100.00
31761;BME280;18335;51.486;7.562;2023-08-24T06:20:17;100249.38;;;18.81;100.00
31761;BME280;18335;51.486;7.562;2023-08-24T06:22:44;100248.25;;;18.95;100.00
31761;BME280;18335;51.486;7.562;2023-08-24T06:25:11;100244.63;;;18.94;100.00
31761;BME280;18335;51.486;7.562;2023-08-24T06:27:38;100233.97;;;19.04;100.00
31761;BME280;18335;51.486;7.562;2023-08-24T06:30:05;100241.00;;;18.94;100.00
31761;BME280;18335;51.486;7.562;2023-08-24T06:32:33;100239.25;;;19.06;100.00
31761;BME280;18335;51.486;7.562;2023-08-24T06:34:59;100235.44;;;19.07;100.00
31761;BME280;18335;51.486;7.562;2023-08-24T06:37:27;100224.97;;;19.15;100.00
31761;BME280;18335;51.486;7.562;2023-08-24T06:39:54;100218.94;;;19.25;100.00
31761;BME280;18335;51.486;7.562;2023-08-24T06:42:21;100216.31;;;19.43;100.00
31761;BME280;18335;51.486;7.562;2023-08-24T06:44:48;100214.59;;;19.42;100.00
31761;BME280;18335;51.486;7.562;2023-08-24T06:47:16;100218.19;;;19.49;100.00
31761;BME280;18335;51.486;7.562;2023-08-24T06:49:43;100224.06;;;19.84;100.00
31761;BME280;18335;51.486;7.562;2023-08-24T06:52:09;100230.16;;;20.17;100.00
31761;BME280;18335;51.486;7.562;2023-08-24T06:54:37;100234.31;;;20.33;100.00
31761;BME280;18335;51.486;7.562;2023-08-24T06:57:05;100224.31;;;20.50;100.00
31761;BME280;18335;51.486;7.562;2023-08-24T06:59:31;100231.31;;;20.71;100.00
31761;BME280;18335;51.486;7.562;2023-08-24T07:01:58;100223.44;;;20.68;100.00
31761;BME280;18335;51.486;7.562;2023-08-24T07:04:25;100224.06;;;20.70;100.00
31761;BME280;18335;51.486;7.562;2023-08-24T07:06:53;100226.63;;;20.71;100.00
31761;BME280;18335;51.486;7.562;2023-08-24T07:09:20;100232.94;;;20.78;100.00
31761;BME280;18335;51.486;7.562;2023-08-24T07:11:48;100230.56;;;20.64;100.00
31761;BME280;18335;51.486;7.562;2023-08-24T07:14:15;100230.91;;;20.85;100.00
31761;BME280;18335;51.486;7.562;2023-08-24T07:16:41;100232.59;;;21.05;100.00
31761;BME280;18335;51.486;7.562;2023-08-24T07:19:09;100224.41;;;21.28;100.00
31761;BME280;18335;51.486;7.562;2023-08-24T07:21:36;100227.72;;;21.48;100.00
31761;BME280;18335;51.486;7.562;2023-08-24T07:24:03;100222.44;;;21.58;100.00
31761;BME280;18335;51.486;7.562;2023-08-24T07:26:30;100231.84;;;21.57;100.00
31761;BME280;18335;51.486;7.562;2023-08-24T07:28:59;100234.56;;;21.87;100.00
31761;BME280;18335;51.486;7.562;2023-08-24T07:31:26;100227.81;;;21.71;100.00
31761;BME280;18335;51.486;7.562;2023-08-24T07:33:52;100229.06;;;21.98;100.00
31761;BME280;18335;51.486;7.562;2023-08-24T07:36:19;100225.78;;;22.01;100.00
31761;BME280;18335;51.486;7.562;2023-08-24T07:38:46;100226.44;;;22.27;100.00
31761;BME280;18335;51.486;7.562;2023-08-24T07:41:13;100227.50;;;22.14;100.00
31761;BME280;18335;51.486;7.562;2023-08-24T07:43:40;100225.81;;;22.36;100.00
31761;BME280;18335;51.486;7.562;2023-08-24T07:46:08;100219.75;;;22.51;100.00
31761;BME280;18335;51.486;7.562;2023-08-24T07:48:35;100222.75;;;22.61;100.00
31761;BME280;18335;51.486;7.562;2023-08-24T07:51:02;100208.34;;;22.64;100.00
31761;BME280;18335;51.486;7.562;2023-08-24T07:53:29;100214.38;;;22.96;100.00
31761;BME280;18335;51.486;7.562;2023-08-24T07:55:56;100213.56;;;23.12;100.00
31761;BME280;18335;51.486;7.562;2023-08-24T07:58:23;100208.31;;;23.27;100.00
31761;BME280;18335;51.486;7.562;2023-08-24T08:00:50;100211.28;;;22.81;100.00
31761;BME280;18335;51.486;7.562;2023-08-24T08:03:19;100203.63;;;22.88;100.00
31761;BME280;18335;51.486;7.562;2023-08-24T08:05:46;100197.94;;;23.23;100.00
31761;BME280;18335;51.486;7.562;2023-08-24T08:08:13;100192.03;;;23.36;100.00
31761;BME280;18335;51.486;7.562;2023-08-24T08:10:40;100193.31;;;23.56;100.00
31761;BME280;18335;51.486;7.562;2023-08-24T08:13:07;100179.34;;;23.40;100.00
31761;BME280;18335;51.486;7.562;2023-08-24T08:15:34;100185.19;;;23.55;100.00
31761;BME280;18335;51.486;7.562;2023-08-24T08:18:01;100181.47;;;23.66;100.00
31761;BME280;18335;51.486;7.562;2023-08-24T08:20:29;100179.28;;;23.85;100.00
31761;BME280;18335;51.486;7.562;2023-08-24T08:22:56;100174.25;;;23.98;100.00
31761;BME280;18335;51.486;7.562;2023-08-24T08:25:23;100174.56;;;24.18;100.00
31761;BME280;18335;51.486;7.562;2023-08-24T08:27:50;100182.31;;;24.33;100.00
31761;BME280;18335;51.486;7.562;2023-08-24T08:30:16;100185.66;;;24.52;100.00
31761;BME280;18335;51.486;7.562;2023-08-24T08:32:45;100183.75;;;24.79;100.00
31761;BME280;18335;51.486;7.562;2023-08-24T08:35:12;100183.09;;;24.67;100.00
31761;BME280;18335;51.486;7.562;2023-08-24T08:37:40;100184.41;;;24.81;100.00
31761;BME280;18335;51.486;7.562;2023-08-24T08:40:09;100181.63;;;24.64;100.00
31761;BME280;18335;51.486;7.562;2023-08-24T08:42:37;100189.84;;;25.14;100.00
31761;BME280;18335;51.486;7.562;2023-08-24T08:45:08;100189.50;;;25.59;100.00
31761;BME280;18335;51.486;7.562;2023-08-24T08:47:35;100171.50;;;25.77;100.00
31761;BME280;18335;51.486;7.562;2023-08-24T08:50:02;100155.38;;;25.89;100.00
31761;BME280;18335;51.486;7.562;2023-08-24T08:52:29;100154.03;;;25.97;100.00
31761;BME280;18335;51.486;7.562;2023-08-24T08:54:58;100151.22;;;25.97;100.00
31761;BME280;18335;51.486;7.562;2023-08-24T08:57:25;100144.56;;;26.03;100.00
31761;BME280;18335;51.486;7.562;2023-08-24T08:59:52;100148.59;;;25.80;100.00
31761;BME280;18335;51.486;7.562;2023-08-24T09:02:20;100148.28;;;26.13;100.00
31761;BME280;18335;51.486;7.562;2023-08-24T09:04:48;100146.78;;;26.01;100.00
31761;BME280;18335;51.486;7.562;2023-08-24T09:07:17;100140.59;;;26.35;100.00
31761;BME280;18335;51.486;7.562;2023-08-24T09:09:43;100131.19;;;26.57;100.00
31761;BME280;18335;51.486;7.562;2023-08-24T09:12:11;100130.41;;;26.71;100.00
31761;BME280;18335;51.486;7.562;2023-08-24T09:14:38;100131.81;;;26.64;100.00
31761;BME280;18335;51.486;7.562;2023-08-24T09:17:06;100129.88;;;26.69;100.00
31761;BME280;18335;51.486;7.562;2023-08-24T09:19:34;100125.22;;;26.95;100.00
31761;BME280;18335;51.486;7.562;2023-08-24T09:22:04;100128.94;;;27.26;100.00
31761;BME280;18335;51.486;7.562;2023-08-24T09:24:31;100127.50;;;27.18;100.00
31761;BME280;18335;51.486;7.562;2023-08-24T09:26:58;100120.75;;;27.04;100.00
31761;BME280;18335;51.486;7.562;2023-08-24T09:29:27;100112.59;;;26.87;100.00
31761;BME280;18335;51.486;7.562;2023-08-24T09:31:54;100105.50;;;26.70;100.00
31761;BME280;18335;51.486;7.562;2023-08-24T09:34:22;100095.97;;;26.66;100.00
31761;BME280;18335;51.486;7.562;2023-08-24T09:36:51;100090.78;;;26.32;100.00
31761;BME280;18335;51.486;7.562;2023-08-24T09:39:18;100078.41;;;26.85;100.00
31761;BME280;18335;51.486;7.562;2023-08-24T09:41:46;100057.94;;;26.70;100.00
31761;BME280;18335;51.486;7.562;2023-08-24T09:44:13;100055.22;;;26.95;100.00
31761;BME280;18335;51.486;7.562;2023-08-24T09:46:42;100044.31;;;27.19;100.00
31761;BME280;18335;51.486;7.562;2023-08-24T09:49:10;100039.81;;;27.33;100.00
31761;BME280;18335;51.486;7.562;2023-08-24T09:51:38;100040.09;;;27.36;100.00
31761;BME280;18335;51.486;7.562;2023-08-24T09:54:06;100051.63;;;27.35;100.00
31761;BME280;18335;51.486;7.562;2023-08-24T09:56:35;100033.13;;;27.29;100.00
31761;BME280;18335;51.486;7.562;2023-08-24T09:59:10;100028.34;;;27.70;100.00
31761;BME280;18335;51.486;7.562;2023-08-24T10:01:43;100020.22;;;27.58;100.00
31761;BME280;18335;51.486;7.562;2023-08-24T10:04:10;100016.47;;;28.03;100.00
31761;BME280;18335;51.486;7.562;2023-08-24T10:06:39;100018.19;;;27.94;100.00
31761;BME280;18335;51.486;7.562;2023-08-24T10:09:07;100014.31;;;27.80;100.00
31761;BME280;18335;51.486;7.562;2023-08-24T10:11:40;100017.63;;;27.97;100.00
31761;BME280;18335;51.486;7.562;2023-08-24T10:14:13;100011.19;;;27.91;100.00
31761;BME280;18335;51.486;7.562;2023-08-24T10:16:44;100015.38;;;28.09;100.00
31761;BME280;18335;51.486;7.562;2023-08-24T10:19:13;100031.38;;;28.09;100.00
31761;BME280;18335;51.486;7.562;2023-08-24T10:21:40;100047.91;;;28.05;100.00
31761;BME280;18335;51.486;7.562;2023-08-24T10:24:08;100061.38;;;28.13;100.00
31761;BME280;18335;51.486;7.562;2023-08-24T10:26:36;100057.06;;;28.46;100.00
31761;BME280;18335;51.486;7.562;2023-08-24T10:29:06;100058.63;;;28.72;100.00
31761;BME280;18335;51.486;7.562;2023-08-24T10:31:33;100072.59;;;28.18;100.00
31761;BME280;18335;51.486;7.562;2023-08-24T10:34:05;100068.22;;;28.61;100.00
31761;BME280;18335;51.486;7.562;2023-08-24T10:36:33;100063.41;;;28.72;100.00
31761;BME280;18335;51.486;7.562;2023-08-24T10:39:02;100064.63;;;28.45;100.00
31761;BME280;18335;51.486;7.562;2023-08-24T10:41:46;100065.84;;;28.19;100.00
31761;BME280;18335;51.486;7.562;2023-08-24T10:44:20;100071.47;;;28.09;100.00
31761;BME280;18335;51.486;7.562;2023-08-24T10:47:05;100069.22;;;28.11;100.00
31761;BME280;18335;51.486;7.562;2023-08-24T10:49:33;100059.66;;;28.27;100.00
31761;BME280;18335;51.486;7.562;2023-08-24T10:52:18;100049.09;;;28.73;100.00
31761;BME280;18335;51.486;7.562;2023-08-24T10:54:46;100045.69;;;28.76;100.00
31761;BME280;18335;51.486;7.562;2023-08-24T10:57:21;100043.78;;;29.10;100.00
31761;BME280;18335;51.486;7.562;2023-08-24T11:00:04;100037.41;;;28.95;100.00
31761;BME280;18335;51.486;7.562;2023-08-24T11:02:41;100048.94;;;29.37;100.00
31761;BME280;18335;51.486;7.562;2023-08-24T11:05:18;100038.16;;;29.49;100.00
31761;BME280;18335;51.486;7.562;2023-08-24T11:07:54;100038.47;;;29.48;100.00
31761;BME280;18335;51.486;7.562;2023-08-24T11:10:23;100035.38;;;29.05;100.00
31761;BME280;18335;51.486;7.562;2023-08-24T11:13:10;100037.31;;;29.10;100.00
31761;BME280;18335;51.486;7.562;2023-08-24T11:15:38;100032.06;;;29.37;100.00
31761;BME280;18335;51.486;7.562;2023-08-24T11:18:19;100032.72;;;29.58;100.00
31761;BME280;18335;51.486;7.562;2023-08-24T11:20:48;100029.72;;;29.49;100.00
31761;BME280;18335;51.486;7.562;2023-08-24T11:23:16;100026.69;;;29.70;100.00
31761;BME280;18335;51.486;7.562;2023-08-24T11:25:43;100028.00;;;29.82;100.00
31761;BME280;18335;51.486;7.562;2023-08-24T11:28:10;100023.16;;;29.88;100.00
31761;BME280;18335;51.486;7.562;2023-08-24T11:30:37;100020.13;;;30.08;100.00
31761;BME280;18335;51.486;7.562;2023-08-24T11:33:04;100017.38;;;30.27;100.00
31761;BME280;18335;51.486;7.562;2023-08-24T11:35:35;100011.91;;;30.35;100.00
31761;BME280;18335;51.486;7.562;2023-08-24T11:38:03;100004.03;;;30.13;100.00
31761;BME280;18335;51.486;7.562;2023-08-24T11:40:30;99997.63;;;29.79;100.00
31761;BME280;18335;51.486;7.562;2023-08-24T11:42:57;99989.53;;;29.73;100.00
31761;BME280;18335;51.486;7.562;2023-08-24T11:45:29;99971.22;;;30.04;100.00
31761;BME280;18335;51.486;7.562;2023-08-24T11:47:58;99973.38;;;29.88;100.00
31761;BME280;18335;51.486;7.562;2023-08-24T11:50:26;99956.25;;;29.85;100.00
31761;BME280;18335;51.486;7.562;2023-08-24T11:52:54;99965.66;;;30.23;100.00
31761;BME280;18335;51.486;7.562;2023-08-24T11:55:22;99965.41;;;30.19;100.00
31761;BME280;18335;51.486;7.562;2023-08-24T11:57:49;99963.81;;;30.55;100.00
31761;BME280;18335;51.486;7.562;2023-08-24T12:00:17;99961.91;;;30.27;100.00
31761;BME280;18335;51.486;7.562;2023-08-24T12:02:45;99960.00;;;30.23;100.00
31761;BME280;18335;51.486;7.562;2023-08-24T12:05:22;99959.34;;;30.31;100.00
31761;BME280;18335;51.486;7.562;2023-08-24T12:07:50;99958.94;;;29.95;100.00
31761;BME280;18335;51.486;7.562;2023-08-24T12:10:17;99964.72;;;30.27;100.00
31761;BME280;18335;51.486;7.562;2023-08-24T12:12:46;99963.09;;;30.45;100.00
31761;BME280;18335;51.486;7.562;2023-08-24T12:15:17;99963.47;;;30.38;100.00
31761;BME280;18335;51.486;7.562;2023-08-24T12:17:46;99969.94;;;30.15;100.00
31761;BME280;18335;51.486;7.562;2023-08-24T12:20:18;99981.69;;;30.22;100.00
31761;BME280;18335;51.486;7.562;2023-08-24T12:22:54;99971.03;;;30.61;100.00
31761;BME280;18335;51.486;7.562;2023-08-24T12:25:24;99985.56;;;30.02;100.00
31761;BME280;18335;51.486;7.562;2023-08-24T12:27:53;99974.28;;;30.26;100.00
31761;BME280;18335;51.486;7.562;2023-08-24T12:30:20;99968.06;;;30.29;100.00
31761;BME280;18335;51.486;7.562;2023-08-24T12:32:47;99962.03;;;30.17;100.00
31761;BME280;18335;51.486;7.562;2023-08-24T12:35:16;99971.78;;;30.48;100.00
31761;BME280;18335;51.486;7.562;2023-08-24T12:37:43;99963.03;;;30.26;100.00
31761;BME280;18335;51.486;7.562;2023-08-24T12:40:11;99950.25;;;30.39;100.00
31761;BME280;18335;51.486;7.562;2023-08-24T12:42:39;99952.22;;;30.38;100.00
31761;BME280;18335;51.486;7.562;2023-08-24T12:45:08;99944.94;;;30.13;100.00